createdAt,value
2019-05-03T00:07:49.356Z,8.25
2019-05-03T00:12:57.707Z,8.72
2019-05-03T00:18:06.103Z,10.16
2019-05-03T00:23:26.724Z,9.67
2019-05-03T00:28:27.774Z,8.73
2019-05-03T00:48:21.977Z,11.94
2019-05-03T00:53:29.165Z,14.19
2019-05-03T00:58:49.603Z,17.53
2019-05-03T01:03:49.926Z,17.85
2019-05-03T01:08:37.063Z,18.18
2019-05-03T01:13:57.465Z,24.20
2019-05-03T01:18:44.835Z,19.18
2019-05-03T01:23:52.658Z,24.73
2019-05-03T01:28:59.454Z,29.99
2019-05-03T01:34:21.921Z,29.36
2019-05-03T01:39:22.255Z,30.98
2019-05-03T01:44:23.044Z,25.97
2019-05-03T01:49:23.273Z,21.43
2019-05-03T01:54:23.644Z,19.51
2019-05-03T02:04:12.228Z,20.87
2019-05-03T02:09:19.270Z,25.36
2019-05-03T02:14:42.238Z,22.54
2019-05-03T02:19:42.280Z,28.42
2019-05-03T02:24:29.598Z,26.67
2019-05-03T02:29:52.313Z,23.89
2019-05-03T02:34:38.212Z,23.57
2019-05-03T02:39:46.432Z,26.26
2019-05-03T02:44:55.340Z,24.26
2019-05-03T02:55:19.059Z,21.58
2019-05-03T03:00:07.230Z,26.65
2019-05-03T03:05:16.712Z,30.26
2019-05-03T03:10:21.867Z,29.14
2019-05-03T03:15:30.185Z,39.52
2019-05-03T03:20:38.390Z,36.06
2019-05-03T03:25:46.670Z,46.11
2019-05-03T03:30:57.483Z,31.46
2019-05-03T03:36:37.693Z,28.73
2019-05-03T03:41:16.331Z,45.95
2019-05-03T03:46:16.045Z,47.35
2019-05-03T03:51:16.019Z,41.03
2019-05-03T03:56:19.161Z,27.64
2019-05-03T04:01:06.347Z,40.59
2019-05-03T04:06:16.611Z,44.92
2019-05-03T04:11:27.825Z,38.55
2019-05-03T04:16:20.776Z,42.64
2019-05-03T04:26:29.844Z,38.68
2019-05-03T04:31:36.843Z,26.88
2019-05-03T04:36:55.820Z,31.24
2019-05-03T04:41:45.204Z,41.69
2019-05-03T04:46:50.556Z,32.86
2019-05-03T04:52:11.753Z,42.78
2019-05-03T04:56:59.126Z,37.81
2019-05-03T05:02:08.048Z,31.09
2019-05-03T05:07:28.881Z,38.07
2019-05-03T05:12:35.415Z,39.49
2019-05-03T05:17:35.295Z,37.02
2019-05-03T05:22:21.647Z,44.82
2019-05-03T05:32:45.269Z,43.61
2019-05-03T05:37:44.396Z,28.98
2019-05-03T05:42:31.204Z,31.91
2019-05-03T05:47:38.718Z,30.93
2019-05-03T05:52:59.633Z,34.24
2019-05-03T05:58:01.645Z,44.06
2019-05-03T06:03:08.668Z,38.14
2019-05-03T06:08:09.883Z,34.94
2019-05-03T06:12:57.556Z,36.55
2019-05-03T06:18:05.785Z,29.16
2019-05-03T06:23:25.304Z,34.89
2019-05-03T06:28:26.606Z,32.45
2019-05-03T06:33:14.901Z,27.82
2019-05-03T06:38:24.261Z,31.69
2019-05-03T06:43:29.793Z,31.48
2019-05-03T06:48:50.101Z,36.43
2019-05-03T06:53:41.747Z,35.92
2019-05-03T06:58:59.059Z,46.45
2019-05-03T07:03:47.455Z,49.02
2019-05-03T07:08:55.183Z,40.66
2019-05-03T07:14:15.672Z,43.66
2019-05-03T07:19:16.032Z,38.99
2019-05-03T07:24:05.433Z,37.55
2019-05-03T07:29:11.901Z,35.61
2019-05-03T07:34:32.269Z,33.39
2019-05-03T07:39:20.499Z,29.11
2019-05-03T07:49:29.755Z,36.10
2019-05-03T07:54:37.036Z,26.17
2019-05-03T07:59:58.454Z,22.78
2019-05-03T08:14:50.571Z,23.81
2019-05-03T08:19:59.298Z,22.83
2019-05-03T08:25:06.879Z,22.27
2019-05-03T08:30:27.261Z,20.11
2019-05-03T08:40:32.076Z,20.69
2019-05-03T08:45:19.280Z,23.12
2019-05-03T08:50:27.695Z,22.10
2019-05-03T08:55:48.858Z,24.15
2019-05-03T09:00:36.433Z,30.69
2019-05-03T09:05:57.555Z,30.92
2019-05-03T09:10:58.048Z,24.53
2019-05-03T09:15:45.392Z,25.71
2019-05-03T09:20:55.500Z,23.05
2019-05-03T09:26:01.281Z,26.41
2019-05-03T09:31:09.890Z,22.73
2019-05-03T09:36:30.166Z,16.73
2019-05-03T09:41:17.502Z,13.75
2019-05-03T09:46:26.384Z,15.55
2019-05-03T09:51:46.258Z,12.26
2019-05-03T09:56:34.664Z,16.63
2019-05-03T10:01:54.906Z,13.10
2019-05-03T10:06:45.121Z,13.02
2019-05-03T10:11:50.710Z,10.06
2019-05-03T10:17:00.245Z,10.03
2019-05-03T10:27:25.186Z,9.56
2019-05-03T10:37:15.156Z,7.54
2019-05-03T10:42:35.277Z,7.50
2019-05-03T10:47:34.919Z,7.01
2019-05-03T10:57:25.528Z,7.34
2019-05-03T11:02:34.936Z,7.92
2019-05-03T11:07:40.236Z,6.72
2019-05-03T11:12:48.896Z,7.03
2019-05-03T11:18:10.078Z,8.25
2019-05-03T11:23:00.810Z,7.34
2019-05-03T11:33:15.827Z,6.04
2019-05-03T11:38:16.870Z,7.65
2019-05-03T11:43:05.276Z,6.54
2019-05-03T11:53:27.357Z,7.09
2019-05-03T11:58:14.973Z,6.26
2019-05-03T12:03:35.509Z,7.21
2019-05-03T12:08:22.310Z,6.88
2019-05-03T12:13:30.695Z,5.82
2019-05-03T12:18:50.293Z,6.03
2019-05-03T12:23:59.822Z,5.99
2019-05-03T12:28:59.775Z,5.33
2019-05-03T14:27:55.665Z,9.28
2019-05-03T14:33:05.448Z,5.94
2019-05-03T14:43:17.640Z,5.86
2019-05-03T14:48:26.600Z,4.99
2019-05-03T14:53:35.740Z,7.76
2019-05-03T14:58:56.118Z,6.34
2019-05-03T15:03:56.193Z,5.74
2019-05-03T15:08:58.440Z,6.32
2019-05-03T15:13:46.083Z,5.84
2019-05-03T15:19:06.449Z,5.75
2019-05-03T15:23:54.857Z,4.55
2019-05-03T15:29:01.129Z,4.59
2019-05-03T15:34:08.473Z,3.99
2019-05-03T15:39:28.676Z,5.98
2019-05-03T15:44:28.850Z,4.95
2019-05-03T15:54:37.988Z,5.66
2019-05-03T15:59:25.418Z,4.73
2019-05-03T16:04:47.729Z,9.05
2019-05-03T16:09:48.979Z,5.67
2019-05-03T16:14:36.463Z,5.35
2019-05-03T16:19:47.528Z,5.80
2019-05-03T16:24:53.135Z,7.82
2019-05-03T16:30:12.827Z,8.62
2019-05-03T16:35:00.195Z,6.45
2019-05-03T16:40:21.262Z,5.85
2019-05-03T16:45:09.789Z,6.99
2019-05-03T17:00:18.018Z,5.86
2019-05-03T17:05:37.935Z,6.31
2019-05-03T17:10:25.473Z,8.00
2019-05-03T17:15:35.217Z,10.67
2019-05-03T17:20:41.039Z,12.29
2019-05-03T17:25:48.539Z,8.31
2019-05-03T17:31:08.633Z,9.32
2019-05-03T17:35:56.902Z,8.84
2019-05-03T17:41:18.626Z,11.33
2019-05-03T17:46:06.096Z,8.72
2019-05-03T17:51:14.944Z,9.14
2019-05-03T17:56:21.749Z,10.02
2019-05-03T18:01:28.978Z,9.50
2019-05-03T18:06:38.617Z,6.02
2019-05-03T18:17:02.772Z,9.45
2019-05-03T18:21:50.372Z,11.85
2019-05-03T20:18:22.010Z,24.86
2019-05-03T20:23:30.203Z,22.49
2019-05-03T20:29:44.318Z,31.24
2019-05-03T20:34:50.819Z,51.36
2019-05-03T20:45:11.887Z,33.93
2019-05-03T20:50:12.026Z,33.58
2019-05-03T20:55:15.353Z,37.66
2019-05-03T21:00:00.425Z,42.79
2019-05-03T21:05:27.779Z,32.41
2019-05-03T21:10:20.984Z,33.40
2019-05-03T21:15:21.258Z,30.35
2019-05-03T21:20:08.430Z,30.72
2019-05-03T21:25:16.797Z,55.00
2019-05-03T21:30:24.665Z,53.81
2019-05-03T21:35:40.920Z,41.79
2019-05-03T21:40:39.631Z,53.17
2019-05-03T21:46:00.814Z,49.57
2019-05-03T21:50:49.114Z,50.96
2019-05-03T21:56:09.403Z,55.94
2019-05-03T22:01:09.588Z,48.36
2019-05-03T22:05:58.160Z,51.19
2019-05-03T22:11:18.093Z,41.17
2019-05-03T22:16:05.472Z,50.29
2019-05-03T22:21:13.897Z,51.87
2019-05-03T22:26:21.298Z,41.90
2019-05-03T22:31:28.433Z,35.26
2019-05-03T22:46:38.688Z,42.64
2019-05-03T22:51:45.987Z,31.84
2019-05-03T23:06:55.704Z,17.50
2019-05-03T23:12:02.871Z,14.83
2019-05-03T23:22:11.276Z,12.22
2019-05-03T23:27:18.453Z,12.08
2019-05-03T23:32:26.591Z,11.91
2019-05-03T23:37:34.956Z,11.53
2019-05-03T23:42:43.370Z,10.83
2019-05-03T23:47:50.930Z,9.78
2019-05-03T23:52:58.287Z,12.53
